sensor_id;sensor_type;location;lat;lon;timestamp;pressure;altitude;pressure_sealevel;temperature;humidity
36502;BME280;25393;46.108;3.390;2023-03-20T00:01:57;98466.69;;;8.27;100.00
36502;BME280;25393;46.108;3.390;2023-03-20T00:04:24;98471.81;;;8.38;100.00
36502;BME280;25393;46.108;3.390;2023-03-20T00:06:51;98462.22;;;8.37;100.00
36502;BME280;25393;46.108;3.390;2023-03-20T00:09:18;98456.56;;;8.23;100.00
36502;BME280;25393;46.108;3.390;2023-03-20T00:11:49;98478.00;;;8.20;100.00
36502;BME280;25393;46.108;3.390;2023-03-20T00:14:18;98472.13;;;8.35;100.00
36502;BME280;25393;46.108;3.390;2023-03-20T00:16:48;98465.72;;;8.38;100.00
36502;BME280;25393;46.108;3.390;2023-03-20T00:19:24;98460.09;;;8.50;100.00
36502;BME280;25393;46.108;3.390;2023-03-20T00:21:54;98461.13;;;8.30;100.00
36502;BME280;25393;46.108;3.390;2023-03-20T00:24:21;98474.22;;;8.32;100.00
36502;BME280;25393;46.108;3.390;2023-03-20T00:26:49;98473.25;;;8.23;100.00
36502;BME280;25393;46.108;3.390;2023-03-20T00:29:26;98469.66;;;8.15;100.00
36502;BME280;25393;46.108;3.390;2023-03-20T00:31:57;98467.56;;;8.18;100.00
36502;BME280;25393;46.108;3.390;2023-03-20T00:34:26;98459.34;;;8.21;100.00
36502;BME280;25393;46.108;3.390;2023-03-20T00:36:54;98475.44;;;8.28;100.00
36502;BME280;25393;46.108;3.390;2023-03-20T00:39:21;98471.28;;;8.35;100.00
36502;BME280;25393;46.108;3.390;2023-03-20T00:41:52;98474.75;;;8.35;100.00
36502;BME280;25393;46.108;3.390;2023-03-20T00:44:29;98471.66;;;8.49;100.00
36502;BME280;25393;46.108;3.390;2023-03-20T00:46:59;98474.84;;;8.53;100.00
36502;BME280;25393;46.108;3.390;2023-03-20T00:49:35;98459.03;;;8.43;100.00
36502;BME280;25393;46.108;3.390;2023-03-20T00:52:04;98469.34;;;8.37;100.00
36502;BME280;25393;46.108;3.390;2023-03-20T00:54:31;98464.63;;;8.21;100.00
36502;BME280;25393;46.108;3.390;2023-03-20T01:00:03;98477.06;;;7.92;100.00
36502;BME280;25393;46.108;3.390;2023-03-20T01:02:31;98474.69;;;7.98;100.00
36502;BME280;25393;46.108;3.390;2023-03-20T01:04:58;98469.69;;;7.95;100.00
36502;BME280;25393;46.108;3.390;2023-03-20T01:07:24;98471.91;;;8.00;100.00
36502;BME280;25393;46.108;3.390;2023-03-20T01:09:51;98478.44;;;8.06;100.00
36502;BME280;25393;46.108;3.390;2023-03-20T01:12:18;98481.63;;;7.99;100.00
36502;BME280;25393;46.108;3.390;2023-03-20T01:14:50;98476.66;;;7.87;100.00
36502;BME280;25393;46.108;3.390;2023-03-20T01:17:20;98481.66;;;7.90;100.00
36502;BME280;25393;46.108;3.390;2023-03-20T01:19:48;98468.59;;;7.79;100.00
36502;BME280;25393;46.108;3.390;2023-03-20T01:22:17;98474.53;;;8.00;100.00
36502;BME280;25393;46.108;3.390;2023-03-20T01:24:44;98465.56;;;7.83;100.00
36502;BME280;25393;46.108;3.390;2023-03-20T01:27:15;98469.56;;;7.78;100.00
36502;BME280;25393;46.108;3.390;2023-03-20T01:29:43;98474.84;;;7.78;100.00
36502;BME280;25393;46.108;3.390;2023-03-20T01:32:14;98480.41;;;7.84;100.00
36502;BME280;25393;46.108;3.390;2023-03-20T01:34:43;98472.78;;;7.91;100.00
36502;BME280;25393;46.108;3.390;2023-03-20T01:37:13;98476.38;;;7.90;100.00
36502;BME280;25393;46.108;3.390;2023-03-20T01:39:43;98475.69;;;7.78;100.00
36502;BME280;25393;46.108;3.390;2023-03-20T01:42:13;98473.50;;;7.74;100.00
36502;BME280;25393;46.108;3.390;2023-03-20T01:44:40;98460.56;;;7.80;100.00
36502;BME280;25393;46.108;3.390;2023-03-20T01:47:15;98469.44;;;7.98;100.00
36502;BME280;25393;46.108;3.390;2023-03-20T01:53:01;98459.16;;;7.86;100.00
36502;BME280;25393;46.108;3.390;2023-03-20T01:55:29;98465.28;;;7.77;100.00
36502;BME280;25393;46.108;3.390;2023-03-20T01:58:01;98462.22;;;7.72;100.00
36502;BME280;25393;46.108;3.390;2023-03-20T02:00:30;98463.91;;;7.73;100.00
36502;BME280;25393;46.108;3.390;2023-03-20T02:02:57;98467.22;;;7.75;100.00
36502;BME280;25393;46.108;3.390;2023-03-20T02:05:24;98461.41;;;7.62;100.00
36502;BME280;25393;46.108;3.390;2023-03-20T02:08:08;98473.47;;;7.64;100.00
36502;BME280;25393;46.108;3.390;2023-03-20T02:10:37;98469.88;;;7.46;100.00
36502;BME280;25393;46.108;3.390;2023-03-20T02:13:06;98471.66;;;7.36;100.00
36502;BME280;25393;46.108;3.390;2023-03-20T02:15:34;98457.53;;;7.18;100.00
36502;BME280;25393;46.108;3.390;2023-03-20T02:18:01;98457.94;;;7.13;100.00
36502;BME280;25393;46.108;3.390;2023-03-20T02:49:03;98468.63;;;6.62;100.00
36502;BME280;25393;46.108;3.390;2023-03-20T02:51:56;98461.09;;;6.48;100.00
36502;BME280;25393;46.108;3.390;2023-03-20T02:57:08;98457.22;;;6.52;100.00
36502;BME280;25393;46.108;3.390;2023-03-20T02:59:46;98456.81;;;6.47;100.00
36502;BME280;25393;46.108;3.390;2023-03-20T03:02:43;98461.22;;;6.46;100.00
36502;BME280;25393;46.108;3.390;2023-03-20T03:05:17;98459.59;;;6.55;100.00
36502;BME280;25393;46.108;3.390;2023-03-20T03:07:47;98463.16;;;6.44;100.00
36502;BME280;25393;46.108;3.390;2023-03-20T03:10:54;98459.28;;;6.48;100.00
36502;BME280;25393;46.108;3.390;2023-03-20T03:13:27;98453.72;;;6.42;100.00
36502;BME280;25393;46.108;3.390;2023-03-20T03:15:59;98463.69;;;6.38;100.00
36502;BME280;25393;46.108;3.390;2023-03-20T03:18:29;98456.78;;;6.17;100.00
36502;BME280;25393;46.108;3.390;2023-03-20T03:20:59;98464.69;;;6.17;100.00
36502;BME280;25393;46.108;3.390;2023-03-20T03:23:30;98454.91;;;6.28;100.00
36502;BME280;25393;46.108;3.390;2023-03-20T03:25:59;98455.88;;;6.27;100.00
36502;BME280;25393;46.108;3.390;2023-03-20T03:28:32;98458.50;;;6.27;100.00
36502;BME280;25393;46.108;3.390;2023-03-20T03:31:04;98455.34;;;6.03;100.00
36502;BME280;25393;46.108;3.390;2023-03-20T03:33:34;98466.97;;;6.00;100.00
36502;BME280;25393;46.108;3.390;2023-03-20T03:39:49;98448.06;;;5.75;100.00
36502;BME280;25393;46.108;3.390;2023-03-20T03:42:29;98464.69;;;5.86;100.00
36502;BME280;25393;46.108;3.390;2023-03-20T03:45:07;98455.13;;;5.74;100.00
36502;BME280;25393;46.108;3.390;2023-03-20T03:47:38;98451.53;;;5.86;100.00
36502;BME280;25393;46.108;3.390;2023-03-20T03:52:42;98463.50;;;5.79;100.00
36502;BME280;25393;46.108;3.390;2023-03-20T03:55:18;98450.50;;;5.67;100.00
36502;BME280;25393;46.108;3.390;2023-03-20T03:58:20;98455.59;;;5.59;100.00
36502;BME280;25393;46.108;3.390;2023-03-20T04:00:49;98457.38;;;5.58;100.00
36502;BME280;25393;46.108;3.390;2023-03-20T04:03:20;98458.03;;;5.71;100.00
36502;BME280;25393;46.108;3.390;2023-03-20T04:05:53;98465.91;;;5.50;100.00
36502;BME280;25393;46.108;3.390;2023-03-20T04:08:25;98456.66;;;5.56;100.00
36502;BME280;25393;46.108;3.390;2023-03-20T04:10:52;98456.66;;;5.35;100.00
36502;BME280;25393;46.108;3.390;2023-03-20T04:13:19;98464.69;;;5.34;100.00
36502;BME280;25393;46.108;3.390;2023-03-20T04:15:45;98458.84;;;5.30;100.00
36502;BME280;25393;46.108;3.390;2023-03-20T04:18:17;98465.38;;;5.36;100.00
36502;BME280;25393;46.108;3.390;2023-03-20T04:20:45;98475.63;;;5.39;100.00
36502;BME280;25393;46.108;3.390;2023-03-20T04:23:12;98466.00;;;5.28;100.00
36502;BME280;25393;46.108;3.390;2023-03-20T04:25:39;98466.97;;;5.27;100.00
36502;BME280;25393;46.108;3.390;2023-03-20T04:28:06;98467.66;;;5.29;100.00
36502;BME280;25393;46.108;3.390;2023-03-20T04:30:33;98467.75;;;5.39;100.00
36502;BME280;25393;46.108;3.390;2023-03-20T04:32:59;98473.91;;;5.49;100.00
36502;BME280;25393;46.108;3.390;2023-03-20T04:35:29;98470.19;;;5.31;100.00
36502;BME280;25393;46.108;3.390;2023-03-20T04:38:00;98470.81;;;5.23;100.00
36502;BME280;25393;46.108;3.390;2023-03-20T04:40:30;98465.81;;;5.20;100.00
36502;BME280;25393;46.108;3.390;2023-03-20T04:42:59;98453.56;;;4.98;100.00
36502;BME280;25393;46.108;3.390;2023-03-20T04:45:29;98472.13;;;5.18;100.00
36502;BME280;25393;46.108;3.390;2023-03-20T04:47:55;98471.22;;;5.08;100.00
36502;BME280;25393;46.108;3.390;2023-03-20T04:50:24;98470.75;;;5.02;100.00
36502;BME280;25393;46.108;3.390;2023-03-20T04:52:50;98466.47;;;4.90;100.00
36502;BME280;25393;46.108;3.390;2023-03-20T04:55:17;98473.28;;;4.93;100.00
36502;BME280;25393;46.108;3.390;2023-03-20T04:57:43;98473.91;;;4.85;100.00
36502;BME280;25393;46.108;3.390;2023-03-20T05:00:10;98468.44;;;4.77;100.00
36502;BME280;25393;46.108;3.390;2023-03-20T05:02:37;98481.06;;;4.72;100.00
36502;BME280;25393;46.108;3.390;2023-03-20T05:05:04;98481.31;;;4.69;100.00
36502;BME280;25393;46.108;3.390;2023-03-20T05:07:31;98477.41;;;4.75;100.00
36502;BME280;25393;46.108;3.390;2023-03-20T05:09:58;98473.34;;;4.71;100.00
36502;BME280;25393;46.108;3.390;2023-03-20T05:12:25;98479.28;;;4.73;100.00
36502;BME280;25393;46.108;3.390;2023-03-20T05:14:55;98469.63;;;4.73;100.00
36502;BME280;25393;46.108;3.390;2023-03-20T05:17:23;98462.00;;;4.48;100.00
36502;BME280;25393;46.108;3.390;2023-03-20T05:19:50;98470.03;;;4.35;100.00
36502;BME280;25393;46.108;3.390;2023-03-20T05:22:17;98470.38;;;4.20;100.00
36502;BME280;25393;46.108;3.390;2023-03-20T05:24:43;98477.63;;;4.16;100.00
36502;BME280;25393;46.108;3.390;2023-03-20T05:27:10;98487.66;;;4.33;99.92
36502;BME280;25393;46.108;3.390;2023-03-20T05:29:37;98488.72;;;4.09;99.37
36502;BME280;25393;46.108;3.390;2023-03-20T05:32:03;98483.94;;;3.91;100.00
36502;BME280;25393;46.108;3.390;2023-03-20T05:34:30;98474.03;;;3.95;100.00
36502;BME280;25393;46.108;3.390;2023-03-20T05:36:57;98484.78;;;4.03;99.76
36502;BME280;25393;46.108;3.390;2023-03-20T05:39:23;98490.22;;;3.78;100.00
36502;BME280;25393;46.108;3.390;2023-03-20T05:41:50;98493.31;;;3.72;100.00
36502;BME280;25393;46.108;3.390;2023-03-20T05:44:16;98492.56;;;3.70;100.00
36502;BME280;25393;46.108;3.390;2023-03-20T05:46:43;98491.44;;;3.85;100.00
36502;BME280;25393;46.108;3.390;2023-03-20T05:49:09;98487.25;;;3.82;100.00
36502;BME280;25393;46.108;3.390;2023-03-20T05:51:36;98496.16;;;3.69;100.00
36502;BME280;25393;46.108;3.390;2023-03-20T05:54:03;98497.81;;;3.59;100.00
36502;BME280;25393;46.108;3.390;2023-03-20T05:56:33;98491.72;;;3.58;100.00
36502;BME280;25393;46.108;3.390;2023-03-20T05:59:02;98495.66;;;3.64;100.00
36502;BME280;25393;46.108;3.390;2023-03-20T06:01:29;98502.69;;;3.63;100.00
36502;BME280;25393;46.108;3.390;2023-03-20T06:03:56;98499.63;;;3.69;100.00
36502;BME280;25393;46.108;3.390;2023-03-20T06:06:22;98494.19;;;3.83;100.00
36502;BME280;25393;46.108;3.390;2023-03-20T06:08:49;98510.75;;;3.95;100.00
36502;BME280;25393;46.108;3.390;2023-03-20T06:11:16;98502.28;;;3.91;100.00
36502;BME280;25393;46.108;3.390;2023-03-20T06:13:42;98508.72;;;3.98;100.00
36502;BME280;25393;46.108;3.390;2023-03-20T06:16:09;98497.63;;;3.84;100.00
36502;BME280;25393;46.108;3.390;2023-03-20T06:18:36;98505.94;;;3.78;100.00
36502;BME280;25393;46.108;3.390;2023-03-20T06:21:04;98504.06;;;3.80;100.00
36502;BME280;25393;46.108;3.390;2023-03-20T06:23:31;98488.94;;;3.83;100.00
36502;BME280;25393;46.108;3.390;2023-03-20T06:25:57;98515.28;;;3.93;100.00
36502;BME280;25393;46.108;3.390;2023-03-20T06:28:24;98508.09;;;3.73;100.00
36502;BME280;25393;46.108;3.390;2023-03-20T06:30:51;98521.25;;;3.95;100.00
36502;BME280;25393;46.108;3.390;2023-03-20T06:33:18;98512.16;;;3.88;100.00
36502;BME280;25393;46.108;3.390;2023-03-20T06:35:45;98518.53;;;3.96;100.00
36502;BME280;25393;46.108;3.390;2023-03-20T06:38:12;98506.00;;;4.00;100.00
36502;BME280;25393;46.108;3.390;2023-03-20T06:40:39;98528.56;;;4.14;100.00
36502;BME280;25393;46.108;3.390;2023-03-20T06:43:06;98523.19;;;4.15;100.00
36502;BME280;25393;46.108;3.390;2023-03-20T06:45:33;98530.25;;;4.37;100.00
36502;BME280;25393;46.108;3.390;2023-03-20T06:48:00;98527.53;;;4.38;100.00
36502;BME280;25393;46.108;3.390;2023-03-20T06:50:27;98531.09;;;4.37;100.00
36502;BME280;25393;46.108;3.390;2023-03-20T06:52:53;98526.34;;;4.42;100.00
36502;BME280;25393;46.108;3.390;2023-03-20T06:55:20;98525.25;;;4.56;100.00
36502;BME280;25393;46.108;3.390;2023-03-20T06:57:46;98526.56;;;4.62;100.00
36502;BME280;25393;46.108;3.390;2023-03-20T07:00:13;98526.91;;;4.68;100.00
36502;BME280;25393;46.108;3.390;2023-03-20T07:02:40;98529.88;;;4.86;100.00
36502;BME280;25393;46.108;3.390;2023-03-20T07:05:06;98528.44;;;4.93;100.00
36502;BME280;25393;46.108;3.390;2023-03-20T07:07:33;98527.72;;;5.02;100.00
36502;BME280;25393;46.108;3.390;2023-03-20T07:10:03;98528.63;;;5.23;100.00
36502;BME280;25393;46.108;3.390;2023-03-20T07:12:33;98536.09;;;5.39;100.00
36502;BME280;25393;46.108;3.390;2023-03-20T07:15:00;98538.31;;;5.54;100.00
36502;BME280;25393;46.108;3.390;2023-03-20T07:17:28;98538.13;;;5.67;100.00
36502;BME280;25393;46.108;3.390;2023-03-20T07:19:58;98534.34;;;5.92;100.00
36502;BME280;25393;46.108;3.390;2023-03-20T07:22:28;98529.09;;;6.13;100.00
36502;BME280;25393;46.108;3.390;2023-03-20T07:24:57;98537.59;;;6.46;100.00
36502;BME280;25393;46.108;3.390;2023-03-20T07:27:24;98538.44;;;6.77;100.00
36502;BME280;25393;46.108;3.390;2023-03-20T07:29:51;98536.69;;;6.97;100.00
36502;BME280;25393;46.108;3.390;2023-03-20T07:32:18;98529.28;;;7.21;99.32
36502;BME280;25393;46.108;3.390;2023-03-20T07:34:46;98533.03;;;7.38;99.45
36502;BME280;25393;46.108;3.390;2023-03-20T07:37:13;98539.03;;;7.69;97.65
36502;BME280;25393;46.108;3.390;2023-03-20T07:39:39;98543.75;;;7.94;97.50
36502;BME280;25393;46.108;3.390;2023-03-20T07:42:06;98540.91;;;8.24;96.34
36502;BME280;25393;46.108;3.390;2023-03-20T07:44:32;98547.38;;;8.59;94.66
36502;BME280;25393;46.108;3.390;2023-03-20T07:47:03;98541.31;;;8.85;92.61
36502;BME280;25393;46.108;3.390;2023-03-20T07:49:31;98542.88;;;9.06;90.37
36502;BME280;25393;46.108;3.390;2023-03-20T07:51:58;98538.13;;;9.09;89.16
36502;BME280;25393;46.108;3.390;2023-03-20T07:54:26;98546.84;;;9.19;88.74
36502;BME280;25393;46.108;3.390;2023-03-20T07:56:53;98551.56;;;9.25;89.07
36502;BME280;25393;46.108;3.390;2023-03-20T07:59:19;98549.69;;;9.35;89.30
36502;BME280;25393;46.108;3.390;2023-03-20T08:01:46;98547.06;;;9.35;88.98
36502;BME280;25393;46.108;3.390;2023-03-20T08:04:12;98542.44;;;9.55;89.48
36502;BME280;25393;46.108;3.390;2023-03-20T08:06:39;98545.19;;;9.81;88.95
36502;BME280;25393;46.108;3.390;2023-03-20T08:09:06;98554.22;;;10.31;86.98
36502;BME280;25393;46.108;3.390;2023-03-20T08:11:32;98557.97;;;10.72;84.53
36502;BME280;25393;46.108;3.390;2023-03-20T08:14:01;98545.19;;;11.01;82.47
36502;BME280;25393;46.108;3.390;2023-03-20T08:16:27;98549.63;;;11.35;81.54
36502;BME280;25393;46.108;3.390;2023-03-20T08:18:54;98546.19;;;11.42;79.03
36502;BME280;25393;46.108;3.390;2023-03-20T08:21:28;98548.34;;;11.55;79.54
36502;BME280;25393;46.108;3.390;2023-03-20T08:23:55;98546.28;;;11.75;79.50
36502;BME280;25393;46.108;3.390;2023-03-20T08:26:27;98540.31;;;11.89;77.41
36502;BME280;25393;46.108;3.390;2023-03-20T08:28:53;98544.63;;;12.06;74.11
36502;BME280;25393;46.108;3.390;2023-03-20T08:31:20;98556.25;;;12.29;74.41
36502;BME280;25393;46.108;3.390;2023-03-20T08:33:47;98556.72;;;12.49;74.93
36502;BME280;25393;46.108;3.390;2023-03-20T08:36:14;98558.38;;;12.50;71.92
36502;BME280;25393;46.108;3.390;2023-03-20T08:38:41;98550.06;;;12.61;73.27
36502;BME280;25393;46.108;3.390;2023-03-20T08:41:08;98550.06;;;12.53;71.86
36502;BME280;25393;46.108;3.390;2023-03-20T08:43:35;98551.75;;;12.54;69.47
36502;BME280;25393;46.108;3.390;2023-03-20T08:46:02;98564.28;;;12.84;72.22
36502;BME280;25393;46.108;3.390;2023-03-20T08:48:29;98558.59;;;13.12;71.46
36502;BME280;25393;46.108;3.390;2023-03-20T08:50:56;98553.41;;;13.18;69.90
36502;BME280;25393;46.108;3.390;2023-03-20T08:53:23;98543.75;;;13.25;69.15
36502;BME280;25393;46.108;3.390;2023-03-20T08:55:50;98557.88;;;13.57;69.46
36502;BME280;25393;46.108;3.390;2023-03-20T08:58:20;98546.56;;;13.85;66.48
36502;BME280;25393;46.108;3.390;2023-03-20T09:00:47;98548.88;;;13.88;63.68
36502;BME280;25393;46.108;3.390;2023-03-20T09:03:16;98545.06;;;14.06;62.99
36502;BME280;25393;46.108;3.390;2023-03-20T09:05:44;98550.03;;;14.31;64.84
36502;BME280;25393;46.108;3.390;2023-03-20T09:08:12;98537.50;;;14.55;64.34
36502;BME280;25393;46.108;3.390;2023-03-20T09:10:39;98539.34;;;14.69;63.21
36502;BME280;25393;46.108;3.390;2023-03-20T09:13:06;98544.72;;;14.98;61.65
36502;BME280;25393;46.108;3.390;2023-03-20T09:15:52;98547.25;;;15.06;59.51
36502;BME280;25393;46.108;3.390;2023-03-20T09:18:19;98546.63;;;15.19;60.22
36502;BME280;25393;46.108;3.390;2023-03-20T09:20:47;98544.78;;;15.19;59.38
36502;BME280;25393;46.108;3.390;2023-03-20T09:23:14;98537.25;;;15.08;61.35
36502;BME280;25393;46.108;3.390;2023-03-20T09:25:40;98530.44;;;14.91;60.13
36502;BME280;25393;46.108;3.390;2023-03-20T09:28:07;98543.13;;;14.89;62.89
36502;BME280;25393;46.108;3.390;2023-03-20T09:30:33;98550.88;;;14.98;64.59
36502;BME280;25393;46.108;3.390;2023-03-20T09:33:00;98553.25;;;15.08;59.98
36502;BME280;25393;46.108;3.390;2023-03-20T09:35:27;98546.16;;;15.15;61.26
36502;BME280;25393;46.108;3.390;2023-03-20T09:37:53;98540.75;;;15.23;60.78
36502;BME280;25393;46.108;3.390;2023-03-20T09:40:27;98553.94;;;15.46;60.86
36502;BME280;25393;46.108;3.390;2023-03-20T09:43:18;98551.88;;;15.77;60.63
36502;BME280;25393;46.108;3.390;2023-03-20T09:46:48;98550.50;;;16.03;57.93
36502;BME280;25393;46.108;3.390;2023-03-20T09:49:06;98544.75;;;16.55;56.19
36502;BME280;25393;46.108;3.390;2023-03-20T09:51:55;98525.63;;;17.13;54.20
36502;BME280;25393;46.108;3.390;2023-03-20T09:57:20;98530.06;;;18.34;51.42
36502;BME280;25393;46.108;3.390;2023-03-20T09:59:52;98522.63;;;18.49;49.96
36502;BME280;25393;46.108;3.390;2023-03-20T10:02:46;98527.56;;;18.13;49.09
36502;BME280;25393;46.108;3.390;2023-03-20T10:05:24;98517.06;;;18.11;48.19
36502;BME280;25393;46.108;3.390;2023-03-20T10:08:02;98518.06;;;17.90;46.95
36502;BME280;25393;46.108;3.390;2023-03-20T10:16:47;98518.31;;;18.22;43.50
36502;BME280;25393;46.108;3.390;2023-03-20T10:21:47;98508.00;;;18.38;39.99
36502;BME280;25393;46.108;3.390;2023-03-20T10:24:24;98516.34;;;17.70;40.23
36502;BME280;25393;46.108;3.390;2023-03-20T10:26:54;98514.91;;;17.67;41.87
36502;BME280;25393;46.108;3.390;2023-03-20T10:37:24;98507.16;;;19.86;37.16
36502;BME280;25393;46.108;3.390;2023-03-20T10:42:24;98513.06;;;19.12;38.97
36502;BME280;25393;46.108;3.390;2023-03-20T10:45:03;98510.47;;;18.27;39.18
36502;BME280;25393;46.108;3.390;2023-03-20T10:47:38;98511.22;;;17.81;40.87
36502;BME280;25393;46.108;3.390;2023-03-20T10:50:14;98511.88;;;17.83;41.06
36502;BME280;25393;46.108;3.390;2023-03-20T10:52:47;98522.94;;;17.67;41.55
36502;BME280;25393;46.108;3.390;2023-03-20T10:55:18;98517.28;;;17.42;42.72
36502;BME280;25393;46.108;3.390;2023-03-20T10:58:01;98516.28;;;17.03;42.18
36502;BME280;25393;46.108;3.390;2023-03-20T11:00:32;98497.25;;;16.84;43.58
36502;BME280;25393;46.108;3.390;2023-03-20T11:03:06;98497.56;;;16.75;44.98
36502;BME280;25393;46.108;3.390;2023-03-20T11:05:38;98495.00;;;16.88;44.57
36502;BME280;25393;46.108;3.390;2023-03-20T11:08:13;98481.09;;;17.12;42.33
36502;BME280;25393;46.108;3.390;2023-03-20T11:10:42;98484.59;;;17.67;42.27
36502;BME280;25393;46.108;3.390;2023-03-20T11:13:24;98490.00;;;18.65;39.32
36502;BME280;25393;46.108;3.390;2023-03-20T11:15:51;98486.75;;;18.57;40.86
36502;BME280;25393;46.108;3.390;2023-03-20T11:18:23;98482.19;;;18.11;43.71
36502;BME280;25393;46.108;3.390;2023-03-20T11:21:07;98476.22;;;18.35;42.81
36502;BME280;25393;46.108;3.390;2023-03-20T11:23:34;98473.09;;;18.71;42.50
36502;BME280;25393;46.108;3.390;2023-03-20T11:26:04;98478.94;;;19.13;42.70
36502;BME280;25393;46.108;3.390;2023-03-20T11:28:37;98463.75;;;19.38;41.12
36502;BME280;25393;46.108;3.390;2023-03-20T11:31:18;98464.88;;;19.17;40.40
36502;BME280;25393;46.108;3.390;2023-03-20T11:34:00;98460.25;;;18.80;43.11
36502;BME280;25393;46.108;3.390;2023-03-20T11:36:34;98466.69;;;18.66;40.62
36502;BME280;25393;46.108;3.390;2023-03-20T11:39:11;98461.56;;;18.31;42.28
36502;BME280;25393;46.108;3.390;2023-03-20T11:41:49;98458.63;;;17.80;42.49
36502;BME280;25393;46.108;3.390;2023-03-20T11:44:32;98459.53;;;17.27;42.84
36502;BME280;25393;46.108;3.390;2023-03-20T11:47:11;98453.22;;;16.93;45.20
36502;BME280;25393;46.108;3.390;2023-03-20T11:49:57;98458.78;;;16.92;45.77
36502;BME280;25393;46.108;3.390;2023-03-20T11:52:26;98463.13;;;16.59;45.93
36502;BME280;25393;46.108;3.390;2023-03-20T11:54:58;98461.91;;;16.40;45.11
36502;BME280;25393;46.108;3.390;2023-03-20T12:00:11;98460.19;;;16.54;44.03
36502;BME280;25393;46.108;3.390;2023-03-20T12:02:42;98466.78;;;16.30;43.87
36502;BME280;25393;46.108;3.390;2023-03-20T12:08:02;98451.91;;;16.83;44.97
36502;BME280;25393;46.108;3.390;2023-03-20T12:10:36;98456.44;;;17.30;44.74
36502;BME280;25393;46.108;3.390;2023-03-20T12:13:12;98450.81;;;17.72;42.36
36502;BME280;25393;46.108;3.390;2023-03-20T12:15:47;98443.81;;;18.24;41.33
36502;BME280;25393;46.108;3.390;2023-03-20T12:23:57;98421.19;;;19.73;40.34
36502;BME280;25393;46.108;3.390;2023-03-20T12:26:34;98414.44;;;19.88;38.57
36502;BME280;25393;46.108;3.390;2023-03-20T12:29:26;98405.22;;;20.27;37.26
36502;BME280;25393;46.108;3.390;2023-03-20T12:32:11;98398.44;;;21.16;39.01
36502;BME280;25393;46.108;3.390;2023-03-20T12:34:43;98388.47;;;21.87;36.47
36502;BME280;25393;46.108;3.390;2023-03-20T12:37:13;98397.91;;;22.31;36.80
36502;BME280;25393;46.108;3.390;2023-03-20T12:39:54;98386.97;;;22.50;34.56
36502;BME280;25393;46.108;3.390;2023-03-20T12:50:29;98379.72;;;21.21;34.11
36502;BME280;25393;46.108;3.390;2023-03-20T13:01:31;98384.72;;;21.47;31.97
36502;BME280;25393;46.108;3.390;2023-03-20T13:07:17;98368.22;;;21.97;35.75
36502;BME280;25393;46.108;3.390;2023-03-20T13:09:50;98371.94;;;22.54;35.56
36502;BME280;25393;46.108;3.390;2023-03-20T13:17:41;98361.63;;;22.27;33.64
36502;BME280;25393;46.108;3.390;2023-03-20T13:26:20;98345.09;;;23.72;33.89
36502;BME280;25393;46.108;3.390;2023-03-20T13:29:10;98349.16;;;23.58;32.22
36502;BME280;25393;46.108;3.390;2023-03-20T13:31:42;98342.69;;;23.59;34.43
36502;BME280;25393;46.108;3.390;2023-03-20T13:34:22;98344.19;;;23.83;32.10
36502;BME280;25393;46.108;3.390;2023-03-20T13:37:08;98338.03;;;24.04;31.31
36502;BME280;25393;46.108;3.390;2023-03-20T13:42:28;98332.56;;;24.16;31.13
36502;BME280;25393;46.108;3.390;2023-03-20T13:45:03;98337.97;;;23.99;29.17
36502;BME280;25393;46.108;3.390;2023-03-20T13:47:36;98329.94;;;23.87;30.04
36502;BME280;25393;46.108;3.390;2023-03-20T13:50:26;98327.81;;;24.45;30.56
36502;BME280;25393;46.108;3.390;2023-03-20T13:53:49;98314.53;;;24.65;30.23
36502;BME280;25393;46.108;3.390;2023-03-20T14:01:17;98319.75;;;23.33;31.77
36502;BME280;25393;46.108;3.390;2023-03-20T14:03:48;98316.84;;;22.78;32.55
36502;BME280;25393;46.108;3.390;2023-03-20T14:09:42;98315.19;;;22.77;32.02
36502;BME280;25393;46.108;3.390;2023-03-20T14:12:10;98297.34;;;22.13;32.49
36502;BME280;25393;46.108;3.390;2023-03-20T14:14:52;98307.44;;;22.06;36.09
36502;BME280;25393;46.108;3.390;2023-03-20T14:17:25;98293.06;;;22.52;32.17
36502;BME280;25393;46.108;3.390;2023-03-20T14:19:54;98304.88;;;22.74;32.59
36502;BME280;25393;46.108;3.390;2023-03-20T14:22:38;98294.63;;;23.32;33.03
36502;BME280;25393;46.108;3.390;2023-03-20T14:25:17;98306.72;;;23.75;33.20
36502;BME280;25393;46.108;3.390;2023-03-20T14:27:59;98287.66;;;24.03;32.44
36502;BME280;25393;46.108;3.390;2023-03-20T14:35:51;98281.81;;;24.11;31.28
36502;BME280;25393;46.108;3.390;2023-03-20T14:41:31;98278.63;;;24.14;31.75
36502;BME280;25393;46.108;3.390;2023-03-20T14:49:33;98285.16;;;23.47;31.52
36502;BME280;25393;46.108;3.390;2023-03-20T14:54:54;98268.63;;;22.58;31.85
36502;BME280;25393;46.108;3.390;2023-03-20T14:57:30;98273.69;;;22.55;32.21
36502;BME280;25393;46.108;3.390;2023-03-20T15:00:17;98276.91;;;22.28;31.91
36502;BME280;25393;46.108;3.390;2023-03-20T15:02:47;98277.44;;;22.54;31.23
36502;BME280;25393;46.108;3.390;2023-03-20T15:05:27;98273.84;;;22.36;32.55
36502;BME280;25393;46.108;3.390;2023-03-20T15:08:10;98262.28;;;22.01;32.80
36502;BME280;25393;46.108;3.390;2023-03-20T15:10:49;98260.38;;;21.67;33.45
36502;BME280;25393;46.108;3.390;2023-03-20T15:13:17;98262.84;;;21.57;32.65
36502;BME280;25393;46.108;3.390;2023-03-20T15:15:58;98271.84;;;21.39;33.31
36502;BME280;25393;46.108;3.390;2023-03-20T15:21:18;98266.47;;;20.31;34.65
36502;BME280;25393;46.108;3.390;2023-03-20T15:23:46;98251.19;;;19.89;34.88
36502;BME280;25393;46.108;3.390;2023-03-20T15:26:15;98247.13;;;19.62;35.18
36502;BME280;25393;46.108;3.390;2023-03-20T15:28:42;98248.56;;;19.82;35.13
36502;BME280;25393;46.108;3.390;2023-03-20T15:31:27;98257.88;;;20.23;36.20
36502;BME280;25393;46.108;3.390;2023-03-20T15:33:55;98258.53;;;20.55;35.03
36502;BME280;25393;46.108;3.390;2023-03-20T15:36:26;98248.44;;;20.80;34.64
36502;BME280;25393;46.108;3.390;2023-03-20T15:39:12;98248.28;;;20.93;33.09
36502;BME280;25393;46.108;3.390;2023-03-20T15:41:44;98253.56;;;20.70;33.75